sensor_id;sensor_type;location;lat;lon;timestamp;pressure;altitude;pressure_sealevel;temperature;humidity
70976;BME280;58635;51.198;6.010;2023-08-06T00:01:45;100226.53;;;19.86;60.18
70976;BME280;58635;51.198;6.010;2023-08-06T00:04:11;100222.06;;;19.87;60.23
70976;BME280;58635;51.198;6.010;2023-08-06T00:06:38;100214.97;;;19.88;60.32
70976;BME280;58635;51.198;6.010;2023-08-06T00:09:04;100214.19;;;19.87;60.29
70976;BME280;58635;51.198;6.010;2023-08-06T00:11:31;100216.81;;;19.87;60.39
70976;BME280;58635;51.198;6.010;2023-08-06T00:13:57;100214.97;;;19.88;60.23
70976;BME280;58635;51.198;6.010;2023-08-06T00:16:24;100207.91;;;19.88;60.46
70976;BME280;58635;51.198;6.010;2023-08-06T00:18:50;100206.06;;;19.89;60.23
70976;BME280;58635;51.198;6.010;2023-08-06T00:21:16;100206.06;;;19.89;60.34
70976;BME280;58635;51.198;6.010;2023-08-06T00:23:43;100211.84;;;19.91;60.69
70976;BME280;58635;51.198;6.010;2023-08-06T00:26:09;100204.75;;;19.91;60.40
70976;BME280;58635;51.198;6.010;2023-08-06T00:28:35;100199.50;;;19.91;60.61
70976;BME280;58635;51.198;6.010;2023-08-06T00:31:02;100195.84;;;19.87;60.22
70976;BME280;58635;51.198;6.010;2023-08-06T00:33:28;100196.09;;;19.91;60.03
70976;BME280;58635;51.198;6.010;2023-08-06T00:35:54;100195.31;;;19.90;60.52
70976;BME280;58635;51.198;6.010;2023-08-06T00:38:21;100189.28;;;19.90;60.36
70976;BME280;58635;51.198;6.010;2023-08-06T00:40:47;100190.06;;;19.90;60.49
70976;BME280;58635;51.198;6.010;2023-08-06T00:43:14;100187.94;;;19.92;60.29
70976;BME280;58635;51.198;6.010;2023-08-06T00:45:41;100178.50;;;19.91;60.41
70976;BME280;58635;51.198;6.010;2023-08-06T00:48:09;100180.34;;;19.91;60.30
70976;BME280;58635;51.198;6.010;2023-08-06T00:50:35;100166.69;;;19.89;60.33
70976;BME280;58635;51.198;6.010;2023-08-06T00:53:02;100180.34;;;19.91;60.18
70976;BME280;58635;51.198;6.010;2023-08-06T00:55:28;100178.00;;;19.89;60.21
70976;BME280;58635;51.198;6.010;2023-08-06T00:57:55;100176.94;;;19.90;60.47
70976;BME280;58635;51.198;6.010;2023-08-06T01:00:22;100182.97;;;19.91;60.23
70976;BME280;58635;51.198;6.010;2023-08-06T01:02:50;100182.44;;;19.89;60.69
70976;BME280;58635;51.198;6.010;2023-08-06T01:05:16;100179.81;;;19.89;60.26
70976;BME280;58635;51.198;6.010;2023-08-06T01:08:56;100186.38;;;19.91;60.29
70976;BME280;58635;51.198;6.010;2023-08-06T01:13:46;100188.50;;;19.89;60.42
70976;BME280;58635;51.198;6.010;2023-08-06T01:16:18;100180.09;;;19.87;60.37
70976;BME280;58635;51.198;6.010;2023-08-06T01:18:49;100189.00;;;19.86;60.47
70976;BME280;58635;51.198;6.010;2023-08-06T01:21:16;100183.75;;;19.86;60.37
70976;BME280;58635;51.198;6.010;2023-08-06T01:23:43;100187.16;;;19.86;60.17
70976;BME280;58635;51.198;6.010;2023-08-06T01:26:27;100193.47;;;19.85;60.18
70976;BME280;58635;51.198;6.010;2023-08-06T01:31:27;100183.00;;;19.75;60.83
70976;BME280;58635;51.198;6.010;2023-08-06T01:33:54;100185.66;;;19.70;60.99
70976;BME280;58635;51.198;6.010;2023-08-06T01:36:22;100182.25;;;19.65;61.13
70976;BME280;58635;51.198;6.010;2023-08-06T01:38:52;100184.91;;;19.60;61.23
70976;BME280;58635;51.198;6.010;2023-08-06T01:41:19;100189.66;;;19.58;61.45
70976;BME280;58635;51.198;6.010;2023-08-06T01:43:45;100189.38;;;19.54;61.30
70976;BME280;58635;51.198;6.010;2023-08-06T01:46:11;100188.84;;;19.52;61.65
70976;BME280;58635;51.198;6.010;2023-08-06T01:48:38;100174.94;;;19.51;61.50
70976;BME280;58635;51.198;6.010;2023-08-06T01:51:04;100179.66;;;19.54;61.48
70976;BME280;58635;51.198;6.010;2023-08-06T01:53:32;100177.88;;;19.55;61.39
70976;BME280;58635;51.198;6.010;2023-08-06T01:55:59;100180.47;;;19.55;61.73
70976;BME280;58635;51.198;6.010;2023-08-06T01:58:25;100179.91;;;19.53;62.10
70976;BME280;58635;51.198;6.010;2023-08-06T02:00:51;100181.00;;;19.57;61.90
70976;BME280;58635;51.198;6.010;2023-08-06T02:03:18;100175.25;;;19.55;61.65
70976;BME280;58635;51.198;6.010;2023-08-06T02:05:44;100178.09;;;19.53;61.72
70976;BME280;58635;51.198;6.010;2023-08-06T02:08:11;100178.63;;;19.50;61.68
70976;BME280;58635;51.198;6.010;2023-08-06T02:10:38;100171.28;;;19.47;61.90
70976;BME280;58635;51.198;6.010;2023-08-06T02:13:04;100179.69;;;19.44;61.81
70976;BME280;58635;51.198;6.010;2023-08-06T02:15:30;100176.00;;;19.40;61.76
70976;BME280;58635;51.198;6.010;2023-08-06T02:17:57;100175.50;;;19.38;61.94
70976;BME280;58635;51.198;6.010;2023-08-06T02:20:23;100170.53;;;19.37;61.89
70976;BME280;58635;51.198;6.010;2023-08-06T02:22:49;100169.75;;;19.36;61.87
70976;BME280;58635;51.198;6.010;2023-08-06T02:25:16;100166.31;;;19.41;61.95
70976;BME280;58635;51.198;6.010;2023-08-06T02:27:42;100163.44;;;19.42;62.08
70976;BME280;58635;51.198;6.010;2023-08-06T02:30:09;100160.56;;;19.44;61.91
70976;BME280;58635;51.198;6.010;2023-08-06T02:32:35;100151.63;;;19.45;61.71
70976;BME280;58635;51.198;6.010;2023-08-06T02:35:02;100152.41;;;19.45;61.93
70976;BME280;58635;51.198;6.010;2023-08-06T02:37:28;100143.22;;;19.48;61.70
70976;BME280;58635;51.198;6.010;2023-08-06T02:39:54;100148.72;;;19.51;61.56
70976;BME280;58635;51.198;6.010;2023-08-06T02:42:21;100146.09;;;19.51;61.60
70976;BME280;58635;51.198;6.010;2023-08-06T02:44:50;100143.72;;;19.50;61.57
70976;BME280;58635;51.198;6.010;2023-08-06T02:47:17;100146.63;;;19.53;61.57
70976;BME280;58635;51.198;6.010;2023-08-06T02:49:43;100136.38;;;19.52;61.78
70976;BME280;58635;51.198;6.010;2023-08-06T02:52:10;100139.53;;;19.54;61.54
70976;BME280;58635;51.198;6.010;2023-08-06T02:54:36;100141.91;;;19.55;61.56
70976;BME280;58635;51.198;6.010;2023-08-06T02:57:03;100140.09;;;19.56;61.68
70976;BME280;58635;51.198;6.010;2023-08-06T02:59:30;100132.22;;;19.56;61.35
70976;BME280;58635;51.198;6.010;2023-08-06T03:01:56;100132.22;;;19.56;61.63
70976;BME280;58635;51.198;6.010;2023-08-06T03:04:22;100132.72;;;19.58;61.84
70976;BME280;58635;51.198;6.010;2023-08-06T03:06:50;100137.69;;;19.60;61.54
70976;BME280;58635;51.198;6.010;2023-08-06T03:09:17;100132.72;;;19.58;61.60
70976;BME280;58635;51.198;6.010;2023-08-06T03:11:44;100134.56;;;19.58;61.41
70976;BME280;58635;51.198;6.010;2023-08-06T03:14:10;100127.75;;;19.56;61.74
70976;BME280;58635;51.198;6.010;2023-08-06T03:16:36;100133.50;;;19.59;61.83
70976;BME280;58635;51.198;6.010;2023-08-06T03:19:02;100130.88;;;19.59;61.73
70976;BME280;58635;51.198;6.010;2023-08-06T03:21:29;100129.84;;;19.54;61.46
70976;BME280;58635;51.198;6.010;2023-08-06T03:23:55;100126.66;;;19.52;61.81
70976;BME280;58635;51.198;6.010;2023-08-06T03:26:21;100128.25;;;19.53;62.07
70976;BME280;58635;51.198;6.010;2023-08-06T03:28:48;100133.28;;;19.55;61.79
70976;BME280;58635;51.198;6.010;2023-08-06T03:31:14;100127.75;;;19.56;62.01
70976;BME280;58635;51.198;6.010;2023-08-06T03:33:40;100131.94;;;19.58;62.01
70976;BME280;58635;51.198;6.010;2023-08-06T03:36:07;100125.41;;;19.55;61.98
70976;BME280;58635;51.198;6.010;2023-08-06T03:38:33;100118.81;;;19.47;62.50
70976;BME280;58635;51.198;6.010;2023-08-06T03:41:00;100135.63;;;19.46;62.60
70976;BME280;58635;51.198;6.010;2023-08-06T03:43:26;100126.72;;;19.42;62.58
70976;BME280;58635;51.198;6.010;2023-08-06T03:45:52;100125.13;;;19.41;62.72
70976;BME280;58635;51.198;6.010;2023-08-06T03:48:19;100126.47;;;19.39;62.55
70976;BME280;58635;51.198;6.010;2023-08-06T03:50:45;100120.44;;;19.38;62.90
70976;BME280;58635;51.198;6.010;2023-08-06T03:53:12;100122.78;;;19.40;63.01
70976;BME280;58635;51.198;6.010;2023-08-06T03:55:38;100119.66;;;19.38;62.98
70976;BME280;58635;51.198;6.010;2023-08-06T03:58:04;100119.66;;;19.38;62.97
70976;BME280;58635;51.198;6.010;2023-08-06T04:00:31;100122.00;;;19.39;63.17
70976;BME280;58635;51.198;6.010;2023-08-06T04:02:57;100127.50;;;19.38;63.09
70976;BME280;58635;51.198;6.010;2023-08-06T04:05:23;100123.84;;;19.39;63.26
70976;BME280;58635;51.198;6.010;2023-08-06T04:07:50;100117.81;;;19.38;63.26
70976;BME280;58635;51.198;6.010;2023-08-06T04:10:16;100124.63;;;19.39;63.54
70976;BME280;58635;51.198;6.010;2023-08-06T04:12:43;100130.91;;;19.38;63.61
70976;BME280;58635;51.198;6.010;2023-08-06T04:15:09;100128.84;;;19.35;63.52
70976;BME280;58635;51.198;6.010;2023-08-06T04:17:36;100125.44;;;19.35;63.50
70976;BME280;58635;51.198;6.010;2023-08-06T04:20:02;100126.47;;;19.34;63.93
70976;BME280;58635;51.198;6.010;2023-08-06T04:22:29;100129.63;;;19.36;63.67
70976;BME280;58635;51.198;6.010;2023-08-06T04:24:55;100129.34;;;19.37;63.76
70976;BME280;58635;51.198;6.010;2023-08-06T04:27:22;100130.13;;;19.38;63.90
70976;BME280;58635;51.198;6.010;2023-08-06T04:29:48;100129.09;;;19.39;63.71
70976;BME280;58635;51.198;6.010;2023-08-06T04:32:14;100124.63;;;19.39;63.78
70976;BME280;58635;51.198;6.010;2023-08-06T04:34:41;100129.88;;;19.39;63.63
70976;BME280;58635;51.198;6.010;2023-08-06T04:37:07;100135.38;;;19.38;64.41
70976;BME280;58635;51.198;6.010;2023-08-06T04:39:33;100133.53;;;19.38;64.26
70976;BME280;58635;51.198;6.010;2023-08-06T04:42:00;100136.16;;;19.38;63.94
70976;BME280;58635;51.198;6.010;2023-08-06T04:44:26;100135.63;;;19.41;63.87
70976;BME280;58635;51.198;6.010;2023-08-06T04:46:53;100140.88;;;19.41;63.76
70976;BME280;58635;51.198;6.010;2023-08-06T04:49:22;100135.63;;;19.41;64.01
70976;BME280;58635;51.198;6.010;2023-08-06T04:51:49;100144.31;;;19.42;64.14
70976;BME280;58635;51.198;6.010;2023-08-06T04:54:15;100131.69;;;19.39;64.14
70976;BME280;58635;51.198;6.010;2023-08-06T04:56:42;100136.69;;;19.40;64.25
70976;BME280;58635;51.198;6.010;2023-08-06T04:59:08;100140.63;;;19.38;64.14
70976;BME280;58635;51.198;6.010;2023-08-06T05:01:35;100140.09;;;19.41;64.08
70976;BME280;58635;51.198;6.010;2023-08-06T05:04:01;100152.16;;;19.42;64.09
70976;BME280;58635;51.198;6.010;2023-08-06T05:06:27;100150.06;;;19.44;63.86
70976;BME280;58635;51.198;6.010;2023-08-06T05:08:54;100152.69;;;19.44;64.22
70976;BME280;58635;51.198;6.010;2023-08-06T05:11:20;100153.19;;;19.46;64.48
70976;BME280;58635;51.198;6.010;2023-08-06T05:13:47;100151.63;;;19.45;64.25
70976;BME280;58635;51.198;6.010;2023-08-06T05:16:13;100152.38;;;19.50;64.26
70976;BME280;58635;51.198;6.010;2023-08-06T05:18:39;100155.81;;;19.56;63.82
70976;BME280;58635;51.198;6.010;2023-08-06T05:21:07;100157.91;;;19.59;63.85
70976;BME280;58635;51.198;6.010;2023-08-06T05:23:33;100164.44;;;19.62;63.97
70976;BME280;58635;51.198;6.010;2023-08-06T05:25:59;100160.75;;;19.63;63.92
70976;BME280;58635;51.198;6.010;2023-08-06T05:28:26;100158.94;;;19.63;63.94
70976;BME280;58635;51.198;6.010;2023-08-06T05:30:52;100168.63;;;19.63;63.75
70976;BME280;58635;51.198;6.010;2023-08-06T05:33:19;100164.69;;;19.65;63.86
70976;BME280;58635;51.198;6.010;2023-08-06T05:35:45;100176.22;;;19.64;64.12
70976;BME280;58635;51.198;6.010;2023-08-06T05:38:11;100174.66;;;19.63;64.20
70976;BME280;58635;51.198;6.010;2023-08-06T05:40:38;100174.41;;;19.65;64.11
70976;BME280;58635;51.198;6.010;2023-08-06T05:43:06;100176.22;;;19.64;64.07
70976;BME280;58635;51.198;6.010;2023-08-06T05:45:33;100186.50;;;19.66;64.11
70976;BME280;58635;51.198;6.010;2023-08-06T05:47:59;100185.44;;;19.67;64.17
70976;BME280;58635;51.198;6.010;2023-08-06T05:50:25;100193.81;;;19.69;64.29
70976;BME280;58635;51.198;6.010;2023-08-06T05:52:52;100196.69;;;19.72;64.46
70976;BME280;58635;51.198;6.010;2023-08-06T05:55:20;100188.00;;;19.77;64.18
70976;BME280;58635;51.198;6.010;2023-08-06T05:57:46;100189.31;;;19.79;64.25
70976;BME280;58635;51.198;6.010;2023-08-06T06:00:12;100195.31;;;19.85;64.06
70976;BME280;58635;51.198;6.010;2023-08-06T06:02:39;100194.78;;;19.88;63.86
70976;BME280;58635;51.198;6.010;2023-08-06T06:05:05;100198.97;;;19.94;64.17
70976;BME280;58635;51.198;6.010;2023-08-06T06:07:32;100203.66;;;19.97;63.89
70976;BME280;58635;51.198;6.010;2023-08-06T06:09:58;100205.75;;;20.00;63.69
70976;BME280;58635;51.198;6.010;2023-08-06T06:12:24;100209.44;;;19.99;63.71
70976;BME280;58635;51.198;6.010;2023-08-06T06:14:52;100213.91;;;19.99;63.61
70976;BME280;58635;51.198;6.010;2023-08-06T06:17:18;100219.94;;;19.99;63.33
70976;BME280;58635;51.198;6.010;2023-08-06T06:19:45;100219.13;;;19.99;63.16
70976;BME280;58635;51.198;6.010;2023-08-06T06:22:11;100224.13;;;20.00;63.70
70976;BME280;58635;51.198;6.010;2023-08-06T06:24:37;100231.75;;;20.02;63.43
70976;BME280;58635;51.198;6.010;2023-08-06T06:27:04;100231.47;;;20.03;63.72
70976;BME280;58635;51.198;6.010;2023-08-06T06:29:34;100235.66;;;20.04;63.55
70976;BME280;58635;51.198;6.010;2023-08-06T06:32:00;100233.56;;;20.06;63.58
70976;BME280;58635;51.198;6.010;2023-08-06T06:34:26;100236.69;;;20.08;63.76
70976;BME280;58635;51.198;6.010;2023-08-06T06:36:53;100245.88;;;20.11;63.71
70976;BME280;58635;51.198;6.010;2023-08-06T06:39:23;100241.41;;;20.11;63.82
70976;BME280;58635;51.198;6.010;2023-08-06T06:41:50;100249.28;;;20.11;63.74
70976;BME280;58635;51.198;6.010;2023-08-06T06:44:16;100251.91;;;20.11;63.73
70976;BME280;58635;51.198;6.010;2023-08-06T06:46:43;100249.28;;;20.11;64.05
70976;BME280;58635;51.198;6.010;2023-08-06T06:49:09;100254.53;;;20.11;63.95
70976;BME280;58635;51.198;6.010;2023-08-06T06:51:35;100255.06;;;20.08;63.98
70976;BME280;58635;51.198;6.010;2023-08-06T06:54:02;100263.72;;;20.09;63.96
70976;BME280;58635;51.198;6.010;2023-08-06T06:56:28;100263.50;;;20.05;63.95
70976;BME280;58635;51.198;6.010;2023-08-06T06:58:54;100270.31;;;20.06;64.04
70976;BME280;58635;51.198;6.010;2023-08-06T07:01:21;100271.09;;;20.07;64.04
70976;BME280;58635;51.198;6.010;2023-08-06T07:03:47;100278.19;;;20.06;63.90
70976;BME280;58635;51.198;6.010;2023-08-06T07:06:20;100270.59;;;20.05;64.32
70976;BME280;58635;51.198;6.010;2023-08-06T07:08:48;100285.00;;;20.07;64.25
70976;BME280;58635;51.198;6.010;2023-08-06T07:11:14;100285.00;;;20.07;64.13
70976;BME280;58635;51.198;6.010;2023-08-06T07:13:40;100286.06;;;20.06;64.30
70976;BME280;58635;51.198;6.010;2023-08-06T07:16:07;100288.97;;;20.05;64.12
70976;BME280;58635;51.198;6.010;2023-08-06T07:18:33;100290.00;;;20.04;64.09
70976;BME280;58635;51.198;6.010;2023-08-06T07:21:00;100294.47;;;20.03;64.06
70976;BME280;58635;51.198;6.010;2023-08-06T07:23:26;100291.06;;;20.03;64.06
70976;BME280;58635;51.198;6.010;2023-08-06T07:25:52;100297.38;;;20.02;64.06
70976;BME280;58635;51.198;6.010;2023-08-06T07:28:19;100304.47;;;20.01;64.31
70976;BME280;58635;51.198;6.010;2023-08-06T07:30:46;100304.97;;;20.03;64.28
70976;BME280;58635;51.198;6.010;2023-08-06T07:33:12;100309.19;;;20.04;64.16
70976;BME280;58635;51.198;6.010;2023-08-06T07:35:39;100314.66;;;20.08;63.98
70976;BME280;58635;51.198;6.010;2023-08-06T07:38:05;100322.28;;;20.14;63.83
70976;BME280;58635;51.198;6.010;2023-08-06T07:40:32;100328.56;;;20.19;63.72
70976;BME280;58635;51.198;6.010;2023-08-06T07:42:58;100319.09;;;20.23;63.79
70976;BME280;58635;51.198;6.010;2023-08-06T07:45:25;100324.31;;;20.28;63.78
70976;BME280;58635;51.198;6.010;2023-08-06T07:47:52;100320.38;;;20.30;63.77
70976;BME280;58635;51.198;6.010;2023-08-06T07:50:19;100320.09;;;20.37;63.82
70976;BME280;58635;51.198;6.010;2023-08-06T07:52:45;100329.53;;;20.43;63.66
70976;BME280;58635;51.198;6.010;2023-08-06T07:55:12;100330.56;;;20.47;63.46
70976;BME280;58635;51.198;6.010;2023-08-06T07:57:38;100335.53;;;20.54;63.51
70976;BME280;58635;51.198;6.010;2023-08-06T08:00:05;100331.31;;;20.63;63.29
70976;BME280;58635;51.198;6.010;2023-08-06T08:02:31;100324.44;;;20.72;63.19
70976;BME280;58635;51.198;6.010;2023-08-06T08:04:58;100330.38;;;20.83;63.17
70976;BME280;58635;51.198;6.010;2023-08-06T08:07:24;100326.13;;;20.92;63.23
70976;BME280;58635;51.198;6.010;2023-08-06T08:09:50;100337.91;;;20.99;62.83
70976;BME280;58635;51.198;6.010;2023-08-06T08:12:17;100338.69;;;21.00;62.92
70976;BME280;58635;51.198;6.010;2023-08-06T08:14:43;100343.63;;;21.07;62.43
70976;BME280;58635;51.198;6.010;2023-08-06T08:17:11;100350.66;;;21.21;62.04
70976;BME280;58635;51.198;6.010;2023-08-06T08:19:39;100352.13;;;21.38;61.78
70976;BME280;58635;51.198;6.010;2023-08-06T08:22:06;100351.50;;;21.51;61.52
70976;BME280;58635;51.198;6.010;2023-08-06T08:24:33;100359.09;;;21.57;61.39
70976;BME280;58635;51.198;6.010;2023-08-06T08:26:59;100372.28;;;21.52;61.06
70976;BME280;58635;51.198;6.010;2023-08-06T08:29:26;100379.72;;;21.40;60.65
70976;BME280;58635;51.198;6.010;2023-08-06T08:31:52;100379.81;;;21.30;60.35
70976;BME280;58635;51.198;6.010;2023-08-06T08:34:22;100382.75;;;21.18;60.66
70976;BME280;58635;51.198;6.010;2023-08-06T08:36:48;100386.25;;;21.03;60.83
70976;BME280;58635;51.198;6.010;2023-08-06T08:39:16;100384.19;;;20.95;60.84
70976;BME280;58635;51.198;6.010;2023-08-06T08:41:42;100393.47;;;20.88;60.90
70976;BME280;58635;51.198;6.010;2023-08-06T08:44:09;100391.13;;;20.81;60.90
70976;BME280;58635;51.198;6.010;2023-08-06T08:46:38;100390.63;;;20.74;61.01
70976;BME280;58635;51.198;6.010;2023-08-06T08:49:06;100405.09;;;20.71;61.17
70976;BME280;58635;51.198;6.010;2023-08-06T08:51:33;100401.16;;;20.69;60.70
70976;BME280;58635;51.198;6.010;2023-08-06T08:54:03;100409.06;;;20.64;60.59
70976;BME280;58635;51.198;6.010;2023-08-06T08:56:31;100402.25;;;20.58;60.65
70976;BME280;58635;51.198;6.010;2023-08-06T08:58:57;100409.06;;;20.59;60.54
70976;BME280;58635;51.198;6.010;2023-08-06T09:01:24;100410.94;;;20.53;60.61
70976;BME280;58635;51.198;6.010;2023-08-06T09:03:51;100418.81;;;20.48;60.73
70976;BME280;58635;51.198;6.010;2023-08-06T09:06:19;100419.38;;;20.40;60.64
70976;BME280;58635;51.198;6.010;2023-08-06T09:09:12;100433.03;;;20.32;60.61
70976;BME280;58635;51.198;6.010;2023-08-06T09:11:43;100438.03;;;20.23;60.93
70976;BME280;58635;51.198;6.010;2023-08-06T09:14:11;100440.41;;;20.20;60.74
70976;BME280;58635;51.198;6.010;2023-08-06T09:16:38;100438.31;;;20.11;61.08
70976;BME280;58635;51.198;6.010;2023-08-06T09:19:11;100442.56;;;20.02;61.26
70976;BME280;58635;51.198;6.010;2023-08-06T09:21:42;100454.59;;;19.98;61.63
70976;BME280;58635;51.198;6.010;2023-08-06T09:24:10;100456.72;;;19.96;61.68
70976;BME280;58635;51.198;6.010;2023-08-06T09:26:37;100462.47;;;19.98;62.16
70976;BME280;58635;51.198;6.010;2023-08-06T09:29:06;100462.47;;;19.98;61.78
70976;BME280;58635;51.198;6.010;2023-08-06T09:31:45;100468.53;;;19.94;61.94
70976;BME280;58635;51.198;6.010;2023-08-06T09:34:19;100475.38;;;19.90;61.76
70976;BME280;58635;51.198;6.010;2023-08-06T09:36:53;100474.59;;;19.89;62.08
70976;BME280;58635;51.198;6.010;2023-08-06T09:39:28;100480.84;;;19.88;61.66
70976;BME280;58635;51.198;6.010;2023-08-06T09:42:02;100478.22;;;19.88;61.77
70976;BME280;58635;51.198;6.010;2023-08-06T09:44:33;100484.53;;;19.92;61.76
70976;BME280;58635;51.198;6.010;2023-08-06T09:47:02;100482.44;;;19.99;61.70
70976;BME280;58635;51.198;6.010;2023-08-06T09:51:59;100492.41;;;20.12;61.64
70976;BME280;58635;51.198;6.010;2023-08-06T09:54:27;100501.06;;;20.23;61.34
70976;BME280;58635;51.198;6.010;2023-08-06T09:56:54;100509.75;;;20.29;61.04
70976;BME280;58635;51.198;6.010;2023-08-06T09:59:23;100512.34;;;20.34;60.96
70976;BME280;58635;51.198;6.010;2023-08-06T10:01:50;100521.31;;;20.43;60.88
70976;BME280;58635;51.198;6.010;2023-08-06T10:04:17;100522.88;;;20.49;60.82
70976;BME280;58635;51.198;6.010;2023-08-06T10:06:47;100520.75;;;20.56;60.60
70976;BME280;58635;51.198;6.010;2023-08-06T10:09:16;100519.97;;;20.61;60.64
70976;BME280;58635;51.198;6.010;2023-08-06T10:11:49;100533.63;;;20.63;60.50
70976;BME280;58635;51.198;6.010;2023-08-06T10:14:24;100529.41;;;20.67;60.67
70976;BME280;58635;51.198;6.010;2023-08-06T10:16:52;100529.41;;;20.72;60.33
70976;BME280;58635;51.198;6.010;2023-08-06T10:19:19;100545.16;;;20.77;60.31
70976;BME280;58635;51.198;6.010;2023-08-06T10:27:35;100548.28;;;20.89;59.94
70976;BME280;58635;51.198;6.010;2023-08-06T10:32:52;100546.41;;;20.95;59.67
70976;BME280;58635;51.198;6.010;2023-08-06T10:35:45;100548.53;;;20.98;59.53
70976;BME280;58635;51.198;6.010;2023-08-06T10:38:14;100545.91;;;20.98;59.41
70976;BME280;58635;51.198;6.010;2023-08-06T10:40:43;100548.81;;;20.96;59.24
70976;BME280;58635;51.198;6.010;2023-08-06T10:43:26;100555.94;;;20.86;59.83
70976;BME280;58635;51.198;6.010;2023-08-06T10:45:54;100553.31;;;20.86;59.77
70976;BME280;58635;51.198;6.010;2023-08-06T10:48:37;100552.50;;;20.85;59.42
70976;BME280;58635;51.198;6.010;2023-08-06T10:51:10;100560.91;;;20.87;59.82
70976;BME280;58635;51.198;6.010;2023-08-06T10:53:37;100555.63;;;20.92;59.81
70976;BME280;58635;51.198;6.010;2023-08-06T10:56:17;100559.31;;;20.96;59.58
70976;BME280;58635;51.198;6.010;2023-08-06T10:58:45;100556.69;;;20.96;59.69
70976;BME280;58635;51.198;6.010;2023-08-06T11:01:12;100555.91;;;20.91;59.90
70976;BME280;58635;51.198;6.010;2023-08-06T11:03:39;100550.94;;;20.84;59.67
70976;BME280;58635;51.198;6.010;2023-08-06T11:06:09;100564.31;;;20.83;59.87
70976;BME280;58635;51.198;6.010;2023-08-06T11:08:37;100566.19;;;20.77;60.09
70976;BME280;58635;51.198;6.010;2023-08-06T11:11:09;100560.41;;;20.70;60.11
70976;BME280;58635;51.198;6.010;2023-08-06T11:13:37;100557.81;;;20.65;60.42
70976;BME280;58635;51.198;6.010;2023-08-06T11:16:05;100565.97;;;20.63;60.47
70976;BME280;58635;51.198;6.010;2023-08-06T11:18:32;100569.91;;;20.56;60.55
70976;BME280;58635;51.198;6.010;2023-08-06T11:21:00;100571.22;;;20.53;60.93
70976;BME280;58635;51.198;6.010;2023-08-06T11:23:30;100582.50;;;20.54;60.85
70976;BME280;58635;51.198;6.010;2023-08-06T11:25:57;100580.66;;;20.59;60.85
70976;BME280;58635;51.198;6.010;2023-08-06T11:28:24;100580.41;;;20.66;60.76
70976;BME280;58635;51.198;6.010;2023-08-06T11:30:51;100579.59;;;20.76;60.67
70976;BME280;58635;51.198;6.010;2023-08-06T11:33:24;100591.69;;;20.87;60.09
70976;BME280;58635;51.198;6.010;2023-08-06T11:35:53;100582.72;;;20.93;60.10
70976;BME280;58635;51.198;6.010;2023-08-06T11:38:20;100583.22;;;21.00;59.73
70976;BME280;58635;51.198;6.010;2023-08-06T11:40:50;100587.94;;;21.08;59.47
70976;BME280;58635;51.198;6.010;2023-08-06T11:43:19;100595.81;;;21.13;58.96
70976;BME280;58635;51.198;6.010;2023-08-06T11:45:46;100596.31;;;21.15;59.02
70976;BME280;58635;51.198;6.010;2023-08-06T11:48:13;100592.38;;;21.23;58.93
70976;BME280;58635;51.198;6.010;2023-08-06T11:50:39;100595.78;;;21.34;58.58
70976;BME280;58635;51.198;6.010;2023-08-06T11:53:06;100591.50;;;21.43;58.26
70976;BME280;58635;51.198;6.010;2023-08-06T11:55:33;100599.91;;;21.50;58.33
70976;BME280;58635;51.198;6.010;2023-08-06T11:58:03;100600.38;;;21.62;58.30
70976;BME280;58635;51.198;6.010;2023-08-06T12:00:30;100609.28;;;21.71;58.14
70976;BME280;58635;51.198;6.010;2023-08-06T12:02:57;100606.59;;;21.81;57.98
70976;BME280;58635;51.198;6.010;2023-08-06T12:05:29;100604.44;;;21.88;57.63
70976;BME280;58635;51.198;6.010;2023-08-06T12:07:57;100601.31;;;21.86;57.89
70976;BME280;58635;51.198;6.010;2023-08-06T12:10:26;100603.69;;;21.83;58.20
70976;BME280;58635;51.198;6.010;2023-08-06T12:12:53;100591.66;;;21.72;58.72
70976;BME280;58635;51.198;6.010;2023-08-06T12:15:20;100595.94;;;21.57;58.70
70976;BME280;58635;51.198;6.010;2023-08-06T12:17:47;100612.28;;;21.49;59.14
70976;BME280;58635;51.198;6.010;2023-08-06T12:20:14;100602.63;;;21.35;59.71
70976;BME280;58635;51.198;6.010;2023-08-06T12:22:40;100613.91;;;21.25;59.47
70976;BME280;58635;51.198;6.010;2023-08-06T12:25:08;100624.19;;;21.16;59.88
70976;BME280;58635;51.198;6.010;2023-08-06T12:27:41;100618.72;;;21.08;60.17
70976;BME280;58635;51.198;6.010;2023-08-06T12:30:09;100620.56;;;21.02;60.50
70976;BME280;58635;51.198;6.010;2023-08-06T12:32:37;100636.59;;;21.00;60.64
70976;BME280;58635;51.198;6.010;2023-08-06T12:35:04;100630.03;;;20.98;60.88
70976;BME280;58635;51.198;6.010;2023-08-06T12:37:33;100617.66;;;20.93;60.95
70976;BME280;58635;51.198;6.010;2023-08-06T12:40:00;100615.03;;;20.93;60.90
70976;BME280;58635;51.198;6.010;2023-08-06T12:42:26;100624.78;;;20.93;60.87
70976;BME280;58635;51.198;6.010;2023-08-06T12:44:52;100626.34;;;20.99;61.60
70976;BME280;58635;51.198;6.010;2023-08-06T12:47:19;100620.81;;;21.11;61.52
70976;BME280;58635;51.198;6.010;2023-08-06T12:49:46;100625.22;;;21.30;61.36
70976;BME280;58635;51.198;6.010;2023-08-06T12:52:12;100628.31;;;21.53;60.79
70976;BME280;58635;51.198;6.010;2023-08-06T12:54:41;100628.22;;;21.73;60.45
70976;BME280;58635;51.198;6.010;2023-08-06T12:57:07;100627.84;;;21.95;60.19
70976;BME280;58635;51.198;6.010;2023-08-06T12:59:34;100630.69;;;22.09;59.78
70976;BME280;58635;51.198;6.010;2023-08-06T13:02:02;100630.69;;;22.14;59.38
70976;BME280;58635;51.198;6.010;2023-08-06T13:04:29;100631.75;;;22.08;59.41
70976;BME280;58635;51.198;6.010;2023-08-06T13:06:55;100634.13;;;21.99;59.11
70976;BME280;58635;51.198;6.010;2023-08-06T13:09:22;100650.00;;;21.89;59.12